createdAt,value
2017-08-21T00:02:18.485Z,2.23
2017-08-21T00:04:45.981Z,3.00
2017-08-21T00:07:13.499Z,1.93
2017-08-21T00:09:41.005Z,1.63
2017-08-21T00:12:08.537Z,1.93
2017-08-21T00:14:36.033Z,2.57
2017-08-21T00:17:03.565Z,1.90
2017-08-21T00:19:31.078Z,2.30
2017-08-21T00:21:58.589Z,2.30
2017-08-21T00:24:26.091Z,2.03
2017-08-21T00:26:53.617Z,2.43
2017-08-21T00:29:21.128Z,1.93
2017-08-21T00:31:48.631Z,2.40
2017-08-21T00:34:16.161Z,2.33
2017-08-21T00:36:43.693Z,2.67
2017-08-21T00:39:11.206Z,2.20
2017-08-21T00:41:38.708Z,1.97
2017-08-21T00:44:06.240Z,2.07
2017-08-21T00:46:33.740Z,2.37
2017-08-21T00:49:01.247Z,2.47
2017-08-21T00:51:28.749Z,2.10
2017-08-21T00:53:56.261Z,1.80
2017-08-21T00:56:23.756Z,2.50
2017-08-21T00:58:51.277Z,2.33
2017-08-21T01:01:18.778Z,1.80
2017-08-21T01:03:46.280Z,1.80
2017-08-21T01:06:13.836Z,2.30
2017-08-21T01:08:41.327Z,2.20
2017-08-21T01:11:08.852Z,1.83
2017-08-21T01:13:36.348Z,2.27
2017-08-21T01:16:03.864Z,2.00
2017-08-21T01:18:31.368Z,1.83
2017-08-21T01:20:58.895Z,2.33
2017-08-21T01:23:26.390Z,2.10
2017-08-21T01:25:53.892Z,2.27
2017-08-21T01:28:21.409Z,2.37
2017-08-21T01:30:48.912Z,2.37
2017-08-21T01:33:16.428Z,2.27
2017-08-21T01:35:43.937Z,2.40
2017-08-21T01:38:11.460Z,3.27
2017-08-21T01:40:38.976Z,2.90
2017-08-21T01:43:06.488Z,2.90
2017-08-21T01:45:33.987Z,3.20
2017-08-21T01:48:01.504Z,2.80
2017-08-21T01:50:29.001Z,2.50
2017-08-21T01:52:56.508Z,3.80
2017-08-21T01:55:24.008Z,2.63
2017-08-21T01:57:51.529Z,3.10
2017-08-21T02:00:19.033Z,2.53
2017-08-21T02:02:46.552Z,3.00
2017-08-21T02:05:14.060Z,2.83
2017-08-21T02:07:41.573Z,2.67
2017-08-21T02:10:09.069Z,3.00
2017-08-21T02:12:36.575Z,3.00
2017-08-21T02:15:04.085Z,2.87
2017-08-21T02:17:31.603Z,2.97
2017-08-21T02:19:59.108Z,2.73
2017-08-21T02:22:26.629Z,3.13
2017-08-21T02:24:54.123Z,2.57
2017-08-21T02:27:21.648Z,2.50
2017-08-21T02:29:49.145Z,3.37
2017-08-21T02:32:16.684Z,2.47
2017-08-21T02:34:44.189Z,2.37
2017-08-21T02:37:11.732Z,2.63
2017-08-21T02:39:39.235Z,2.33
2017-08-21T02:42:06.736Z,2.50
2017-08-21T02:44:34.249Z,1.63
2017-08-21T02:47:01.757Z,1.87
2017-08-21T02:49:29.272Z,2.00
2017-08-21T02:51:56.779Z,2.30
2017-08-21T02:54:24.300Z,2.43
2017-08-21T02:56:51.797Z,2.50
2017-08-21T02:59:19.319Z,2.80
2017-08-21T03:01:46.816Z,2.20
2017-08-21T03:04:14.442Z,2.50
2017-08-21T03:06:41.949Z,3.00
2017-08-21T03:09:09.477Z,2.60
2017-08-21T03:11:36.980Z,2.90
2017-08-21T03:14:04.501Z,2.70
2017-08-21T03:16:32.005Z,2.60
2017-08-21T03:18:59.534Z,2.30
2017-08-21T03:21:27.044Z,2.37
2017-08-21T03:23:54.585Z,2.30
2017-08-21T03:26:22.084Z,2.40
2017-08-21T03:28:49.604Z,2.70
2017-08-21T03:31:17.120Z,2.37
2017-08-21T03:33:44.651Z,2.20
2017-08-21T03:36:12.154Z,2.47
2017-08-21T03:38:39.675Z,2.23
2017-08-21T03:41:07.190Z,2.70
2017-08-21T03:43:34.705Z,2.43
2017-08-21T03:46:02.195Z,2.30
2017-08-21T03:48:29.697Z,2.63
2017-08-21T03:50:57.225Z,2.70
2017-08-21T03:53:24.725Z,2.37
2017-08-21T03:55:52.245Z,2.63
2017-08-21T03:58:19.761Z,2.40
2017-08-21T04:00:48.137Z,2.53
2017-08-21T04:03:15.641Z,2.63
2017-08-21T04:05:43.169Z,2.70
2017-08-21T04:08:10.674Z,2.77
2017-08-21T04:10:38.205Z,2.77
2017-08-21T04:13:05.714Z,2.80
2017-08-21T04:15:33.234Z,2.43
2017-08-21T04:18:00.743Z,3.03
2017-08-21T04:20:28.278Z,2.70
2017-08-21T04:22:55.984Z,2.67
2017-08-21T04:25:23.765Z,3.13
2017-08-21T04:27:51.555Z,3.17
2017-08-21T04:30:19.112Z,3.00
2017-08-21T04:32:46.612Z,3.57
2017-08-21T04:35:14.137Z,2.80
2017-08-21T04:37:41.645Z,3.20
2017-08-21T04:40:09.169Z,2.67
2017-08-21T04:42:36.679Z,2.80
2017-08-21T04:45:05.055Z,2.47
2017-08-21T04:47:32.571Z,2.77
2017-08-21T04:50:00.070Z,2.10
2017-08-21T04:52:27.581Z,2.77
2017-08-21T04:54:55.084Z,2.43
2017-08-21T04:57:22.588Z,2.80
2017-08-21T04:59:50.079Z,2.13
2017-08-21T05:02:17.580Z,2.70
2017-08-21T05:04:45.089Z,2.00
2017-08-21T05:07:12.601Z,2.83
2017-08-21T05:09:40.122Z,2.60
2017-08-21T05:12:07.659Z,2.67
2017-08-21T05:14:35.185Z,3.10
2017-08-21T05:17:02.684Z,2.50
2017-08-21T05:19:30.225Z,2.87
2017-08-21T05:21:57.739Z,2.70
2017-08-21T05:24:25.248Z,2.57
2017-08-21T05:26:52.897Z,2.70
2017-08-21T05:29:20.401Z,2.67
2017-08-21T05:31:47.927Z,2.50
2017-08-21T05:34:15.438Z,2.77
2017-08-21T05:36:42.957Z,2.87
2017-08-21T05:39:10.471Z,2.53
2017-08-21T05:41:37.973Z,2.63
2017-08-21T05:44:05.504Z,2.60
2017-08-21T05:46:33.006Z,2.90
2017-08-21T05:49:00.521Z,3.37
2017-08-21T05:51:28.035Z,2.13
2017-08-21T05:53:55.580Z,2.43
2017-08-21T05:56:23.084Z,2.73
2017-08-21T05:58:50.591Z,2.93
2017-08-21T06:01:18.136Z,2.30
2017-08-21T06:03:45.637Z,2.23
2017-08-21T06:06:13.167Z,2.80
2017-08-21T06:08:40.682Z,2.47
2017-08-21T06:11:08.213Z,2.30
2017-08-21T06:13:35.721Z,2.40
2017-08-21T06:16:03.221Z,2.90
2017-08-21T06:18:30.755Z,2.63
2017-08-21T06:20:58.271Z,3.40
2017-08-21T06:23:25.809Z,5.23
2017-08-21T06:25:53.312Z,3.97
2017-08-21T06:28:20.819Z,2.93
2017-08-21T06:30:48.346Z,2.50
2017-08-21T06:33:16.261Z,2.50
2017-08-21T06:35:44.186Z,2.17
2017-08-21T06:38:11.713Z,1.90
2017-08-21T06:40:39.244Z,2.20
2017-08-21T06:43:06.743Z,2.60
2017-08-21T06:45:34.254Z,2.23
2017-08-21T06:48:01.774Z,2.83
2017-08-21T06:50:29.492Z,2.77
2017-08-21T06:52:57.013Z,2.50
2017-08-21T06:55:24.517Z,2.80
2017-08-21T06:57:52.033Z,2.23
2017-08-21T07:00:19.941Z,2.57
2017-08-21T07:02:47.472Z,2.40
2017-08-21T07:05:14.987Z,2.57
2017-08-21T07:07:42.514Z,2.97
2017-08-21T07:10:10.017Z,2.60
2017-08-21T07:12:37.543Z,2.90
2017-08-21T07:15:05.062Z,3.10
2017-08-21T07:17:32.575Z,2.90
2017-08-21T07:20:00.113Z,3.63
2017-08-21T07:22:27.629Z,3.00
2017-08-21T07:24:55.158Z,3.17
2017-08-21T07:27:22.657Z,3.00
2017-08-21T07:29:50.252Z,2.40
2017-08-21T07:32:17.823Z,2.90
2017-08-21T07:34:45.346Z,2.80
2017-08-21T07:37:12.857Z,2.53
2017-08-21T07:39:40.415Z,3.00
2017-08-21T07:42:07.924Z,2.60
2017-08-21T07:44:35.433Z,2.93
2017-08-21T07:47:03.050Z,2.53
2017-08-21T07:49:30.582Z,2.30
2017-08-21T07:51:58.140Z,2.90
2017-08-21T07:54:25.677Z,3.17
2017-08-21T07:56:56.882Z,2.37
2017-08-21T07:59:24.406Z,3.03
2017-08-21T08:01:51.987Z,2.30
2017-08-21T08:04:19.514Z,2.30
2017-08-21T08:06:47.065Z,2.30
2017-08-21T08:09:14.604Z,2.73
2017-08-21T08:11:42.173Z,2.43
2017-08-21T08:14:09.682Z,2.30
2017-08-21T08:16:37.231Z,2.43
2017-08-21T08:19:04.758Z,2.60
2017-08-21T08:21:32.288Z,1.97
2017-08-21T08:23:59.794Z,2.10
2017-08-21T08:26:27.325Z,2.10
2017-08-21T08:28:54.828Z,2.53
2017-08-21T08:31:22.381Z,2.27
2017-08-21T08:33:49.890Z,1.87
2017-08-21T08:36:17.419Z,2.00
2017-08-21T08:38:44.933Z,2.47
2017-08-21T08:41:12.509Z,2.50
2017-08-21T08:43:40.024Z,2.30
2017-08-21T08:46:07.550Z,2.47
2017-08-21T08:48:35.066Z,2.20
2017-08-21T08:51:02.593Z,2.33
2017-08-21T08:53:30.080Z,2.33
2017-08-21T08:55:57.605Z,2.33
2017-08-21T08:58:25.107Z,2.00
2017-08-21T09:00:52.621Z,2.57
2017-08-21T09:03:20.174Z,2.37
2017-08-21T09:05:47.718Z,2.80
2017-08-21T09:08:15.293Z,2.23
2017-08-21T09:10:42.907Z,1.90
2017-08-21T09:13:10.424Z,2.40
2017-08-21T09:15:37.958Z,2.20
2017-08-21T09:18:05.462Z,2.50
2017-08-21T09:20:33.037Z,2.30
2017-08-21T09:23:00.553Z,2.43
2017-08-21T09:25:28.080Z,2.00
2017-08-21T09:27:55.582Z,2.10
2017-08-21T09:30:23.102Z,1.90
2017-08-21T09:32:50.609Z,2.67
2017-08-21T09:35:18.133Z,2.30
2017-08-21T09:37:45.632Z,2.40
2017-08-21T09:40:13.166Z,2.20
2017-08-21T09:42:40.669Z,2.83
2017-08-21T09:45:08.189Z,2.30
2017-08-21T09:47:35.696Z,2.33
2017-08-21T09:50:03.222Z,2.40
2017-08-21T09:52:30.730Z,2.47
2017-08-21T09:54:58.267Z,2.60
2017-08-21T09:57:25.772Z,2.60
2017-08-21T09:59:53.306Z,2.03
2017-08-21T10:02:20.820Z,1.90
2017-08-21T10:04:48.326Z,2.40
2017-08-21T10:07:15.832Z,2.30
2017-08-21T10:09:43.341Z,1.97
2017-08-21T10:12:10.858Z,2.43
2017-08-21T10:14:38.358Z,3.10
2017-08-21T10:17:05.874Z,2.73
2017-08-21T10:19:33.392Z,2.13
2017-08-21T10:22:00.921Z,2.20
2017-08-21T10:24:28.421Z,2.60
2017-08-21T10:26:55.928Z,2.30
2017-08-21T10:29:23.429Z,2.37
2017-08-21T10:31:50.958Z,2.30
2017-08-21T10:34:18.489Z,2.33
2017-08-21T10:36:46.011Z,2.60
2017-08-21T10:39:13.512Z,2.50
2017-08-21T10:41:41.041Z,2.30
2017-08-21T10:44:08.546Z,3.20
2017-08-21T10:46:36.068Z,2.07
2017-08-21T10:49:03.583Z,2.30
2017-08-21T10:51:31.866Z,2.50
2017-08-21T10:53:59.363Z,2.20
2017-08-21T10:56:26.903Z,2.40
2017-08-21T10:58:54.404Z,2.23
2017-08-21T11:01:21.962Z,2.83
2017-08-21T11:03:49.484Z,2.40
2017-08-21T11:06:17.025Z,2.60
2017-08-21T11:08:44.521Z,2.50
2017-08-21T11:11:12.047Z,2.43
2017-08-21T11:13:39.550Z,1.93
2017-08-21T11:16:07.099Z,2.20
2017-08-21T11:18:34.625Z,2.10
2017-08-21T11:21:02.214Z,2.03
2017-08-21T11:23:29.729Z,2.30
2017-08-21T11:25:57.264Z,2.40
2017-08-21T11:28:24.757Z,2.00
2017-08-21T11:30:52.309Z,2.43
2017-08-21T11:33:19.875Z,2.30
2017-08-21T11:35:48.315Z,3.10
2017-08-21T11:38:15.869Z,2.27
2017-08-21T11:40:43.396Z,2.20
2017-08-21T11:43:10.938Z,2.40
2017-08-21T11:45:38.475Z,2.30
2017-08-21T11:48:06.034Z,2.40
2017-08-21T11:50:33.578Z,2.27
2017-08-21T11:53:01.085Z,1.93
2017-08-21T11:55:28.599Z,1.90
2017-08-21T11:57:56.115Z,2.47
2017-08-21T12:00:23.669Z,2.10
2017-08-21T12:02:51.157Z,2.33
2017-08-21T12:05:18.688Z,2.20
2017-08-21T12:07:46.211Z,1.73
2017-08-21T12:10:13.714Z,2.50
2017-08-21T12:12:41.245Z,2.10
2017-08-21T12:15:08.810Z,2.13
2017-08-21T12:17:36.325Z,2.40
2017-08-21T12:20:03.849Z,2.20
2017-08-21T12:22:31.362Z,2.07
2017-08-21T12:24:58.872Z,2.60
2017-08-21T12:27:26.373Z,2.50
2017-08-21T12:29:53.865Z,2.37
2017-08-21T12:32:21.404Z,2.50
2017-08-21T12:34:48.907Z,2.53
2017-08-21T12:37:16.432Z,2.60
2017-08-21T12:39:43.933Z,2.70
2017-08-21T12:42:11.433Z,2.40
2017-08-21T12:44:38.958Z,2.60
2017-08-21T12:47:06.457Z,2.10
2017-08-21T12:49:33.988Z,2.00
2017-08-21T12:52:01.485Z,2.40
2017-08-21T12:54:28.989Z,1.90
2017-08-21T12:56:56.504Z,2.50
2017-08-21T12:59:24.009Z,2.30
2017-08-21T13:01:51.725Z,3.90
2017-08-21T13:04:19.238Z,2.40
2017-08-21T13:06:46.769Z,3.13
2017-08-21T13:09:14.291Z,2.80
2017-08-21T13:11:41.815Z,2.47
2017-08-21T13:14:09.465Z,2.33
2017-08-21T13:16:36.975Z,2.50
2017-08-21T13:19:04.499Z,2.20
2017-08-21T13:21:32.002Z,2.60
2017-08-21T13:23:59.522Z,2.30
2017-08-21T13:26:27.022Z,2.50
2017-08-21T13:28:54.537Z,2.63
2017-08-21T13:31:22.062Z,2.90
2017-08-21T13:33:49.555Z,2.67
2017-08-21T13:36:20.501Z,2.87
2017-08-21T13:38:47.996Z,2.20
2017-08-21T13:41:15.499Z,3.10
2017-08-21T13:43:43.034Z,2.90
2017-08-21T13:46:10.562Z,2.60
2017-08-21T13:48:38.082Z,2.47
2017-08-21T13:51:05.576Z,2.80
2017-08-21T13:53:33.077Z,2.80
2017-08-21T13:56:00.631Z,2.27
2017-08-21T13:58:28.120Z,2.73
2017-08-21T14:00:55.628Z,3.27
2017-08-21T14:03:23.162Z,2.70
2017-08-21T14:05:50.683Z,2.23
2017-08-21T14:08:18.176Z,2.90
2017-08-21T14:10:45.689Z,2.50
2017-08-21T14:13:13.212Z,3.00
2017-08-21T14:15:40.726Z,2.53
2017-08-21T14:18:08.251Z,2.30
2017-08-21T14:20:35.765Z,2.60
2017-08-21T14:23:03.326Z,2.93
2017-08-21T14:25:30.970Z,2.57
2017-08-21T14:27:58.466Z,2.70
2017-08-21T14:30:26.000Z,2.67
2017-08-21T14:32:53.530Z,2.67
2017-08-21T14:35:21.055Z,2.50
2017-08-21T14:37:49.425Z,3.13
2017-08-21T14:40:17.932Z,2.70
2017-08-21T14:42:45.478Z,2.87
2017-08-21T14:45:12.990Z,2.27
2017-08-21T14:47:40.506Z,2.67
2017-08-21T14:50:08.001Z,2.73
2017-08-21T14:52:35.550Z,2.70
2017-08-21T14:55:03.986Z,2.10
2017-08-21T14:57:31.499Z,2.37
2017-08-21T14:59:59.094Z,2.60
2017-08-21T15:02:26.599Z,2.30
2017-08-21T15:04:54.139Z,3.10
2017-08-21T15:07:21.654Z,2.40
2017-08-21T15:09:49.549Z,2.90
2017-08-21T15:12:17.079Z,2.50
2017-08-21T15:14:44.635Z,2.37
2017-08-21T15:17:12.158Z,3.13
2017-08-21T15:19:39.673Z,2.73
2017-08-21T15:22:07.227Z,2.70
2017-08-21T15:24:34.758Z,2.63
2017-08-21T15:27:02.289Z,2.60
2017-08-21T15:29:29.838Z,2.87
2017-08-21T15:32:00.617Z,2.43
2017-08-21T15:34:28.158Z,2.63
2017-08-21T15:36:55.681Z,1.87
2017-08-21T15:39:23.189Z,2.50
2017-08-21T15:41:50.750Z,2.30
2017-08-21T15:44:18.273Z,2.23
2017-08-21T15:46:45.833Z,3.07
2017-08-21T15:49:14.333Z,2.30
2017-08-21T15:51:41.899Z,2.07
2017-08-21T15:54:09.420Z,2.27
2017-08-21T15:56:36.942Z,1.90
2017-08-21T15:59:04.487Z,2.60
2017-08-21T16:01:32.013Z,2.53
2017-08-21T16:03:59.562Z,2.53
2017-08-21T16:06:27.104Z,3.03
2017-08-21T16:08:54.647Z,2.73
2017-08-21T16:11:22.168Z,2.60
2017-08-21T16:13:49.683Z,2.60
2017-08-21T16:16:17.252Z,2.27
2017-08-21T16:18:44.775Z,2.67
2017-08-21T16:21:12.315Z,2.00
2017-08-21T16:23:39.838Z,2.33
2017-08-21T16:26:07.357Z,2.30
2017-08-21T16:28:34.893Z,2.07
2017-08-21T16:31:02.410Z,3.10
2017-08-21T16:33:30.032Z,1.87
2017-08-21T16:35:57.630Z,2.80
2017-08-21T16:38:25.215Z,1.90
2017-08-21T16:40:52.773Z,2.00
2017-08-21T16:43:20.307Z,2.70
2017-08-21T16:45:47.843Z,2.43
2017-08-21T16:48:15.366Z,1.83
2017-08-21T16:50:42.888Z,2.70
2017-08-21T16:53:10.430Z,2.53
2017-08-21T16:55:37.957Z,2.33
2017-08-21T16:58:05.454Z,3.30
2017-08-21T17:00:33.160Z,2.67
2017-08-21T17:03:00.682Z,2.30
2017-08-21T17:05:28.207Z,2.40
2017-08-21T17:07:55.837Z,2.60
2017-08-21T17:10:23.341Z,2.37
2017-08-21T17:12:50.857Z,2.60
2017-08-21T17:15:19.163Z,2.70
2017-08-21T17:17:46.663Z,2.83
2017-08-21T17:20:14.198Z,2.90
2017-08-21T17:22:41.732Z,3.00
2017-08-21T17:25:09.294Z,2.90
2017-08-21T17:27:36.799Z,2.70
2017-08-21T17:30:04.863Z,6.40
2017-08-21T17:32:32.384Z,3.10
2017-08-21T17:34:59.890Z,3.53
2017-08-21T17:37:27.473Z,2.73
2017-08-21T17:39:54.979Z,3.20
2017-08-21T17:42:22.472Z,3.17
2017-08-21T17:44:50.009Z,2.30
2017-08-21T17:47:17.515Z,3.27
2017-08-21T17:49:45.066Z,3.20
2017-08-21T17:52:12.597Z,3.00
2017-08-21T17:54:40.150Z,2.20
2017-08-21T17:57:07.721Z,2.90
2017-08-21T17:59:35.298Z,3.40
2017-08-21T18:02:02.853Z,2.90
2017-08-21T18:04:30.377Z,2.50
2017-08-21T18:06:57.949Z,2.03
2017-08-21T18:09:25.496Z,2.30
2017-08-21T18:11:53.077Z,2.63
2017-08-21T18:14:20.644Z,2.43
2017-08-21T18:16:48.196Z,2.50
2017-08-21T18:19:15.819Z,2.70
2017-08-21T18:21:43.381Z,2.63
2017-08-21T18:24:10.890Z,2.60
2017-08-21T18:26:38.415Z,2.47
2017-08-21T18:29:05.937Z,3.10
2017-08-21T18:31:33.488Z,3.13
2017-08-21T18:34:01.024Z,2.90
2017-08-21T18:36:29.264Z,2.60
2017-08-21T18:38:57.068Z,2.80
2017-08-21T18:41:24.576Z,2.90
2017-08-21T18:43:52.086Z,3.50
2017-08-21T18:46:19.616Z,3.00
2017-08-21T18:48:47.125Z,2.70
2017-08-21T18:51:14.889Z,3.07
2017-08-21T18:53:42.422Z,2.90
2017-08-21T18:56:10.187Z,3.00
2017-08-21T18:58:37.756Z,2.73
2017-08-21T19:01:05.268Z,3.00
2017-08-21T19:03:32.797Z,3.10
2017-08-21T19:06:00.297Z,3.07
2017-08-21T19:08:27.806Z,2.60
2017-08-21T19:10:55.353Z,3.40
2017-08-21T19:13:22.893Z,3.70
2017-08-21T19:15:50.428Z,3.47
2017-08-21T19:18:17.961Z,3.73
2017-08-21T19:20:45.472Z,3.17
2017-08-21T19:23:13.061Z,2.87
2017-08-21T19:25:40.585Z,3.00
2017-08-21T19:28:08.127Z,2.67
2017-08-21T19:30:35.647Z,3.47
2017-08-21T19:33:03.172Z,3.00
2017-08-21T19:35:30.738Z,3.83
2017-08-21T19:37:59.026Z,6.50
2017-08-21T19:40:26.566Z,6.87
2017-08-21T19:42:54.082Z,4.30
2017-08-21T19:45:21.613Z,3.70
2017-08-21T19:47:49.162Z,4.70
2017-08-21T19:50:16.681Z,3.50
2017-08-21T19:52:44.242Z,3.00
2017-08-21T19:55:11.760Z,2.80
2017-08-21T19:57:39.278Z,3.50
2017-08-21T20:00:06.845Z,3.03
2017-08-21T20:02:37.381Z,2.67
2017-08-21T20:05:10.363Z,3.27
2017-08-21T20:07:37.918Z,3.63
2017-08-21T20:10:05.463Z,3.40
2017-08-21T20:12:32.996Z,3.50
2017-08-21T20:15:00.546Z,3.50
2017-08-21T20:17:28.107Z,3.77
2017-08-21T20:19:55.621Z,3.30
2017-08-21T20:22:23.219Z,2.90
2017-08-21T20:24:50.763Z,2.60
2017-08-21T20:27:18.290Z,3.60
2017-08-21T20:29:45.832Z,2.97
2017-08-21T20:32:13.358Z,2.77
2017-08-21T20:34:44.179Z,2.83
2017-08-21T20:37:11.711Z,2.70
2017-08-21T20:39:39.235Z,2.47
2017-08-21T20:42:06.993Z,2.97
2017-08-21T20:44:34.639Z,3.17
2017-08-21T20:47:02.186Z,3.47
2017-08-21T20:49:29.705Z,3.27
2017-08-21T20:51:57.222Z,3.17
2017-08-21T20:54:24.767Z,3.20
2017-08-21T20:56:52.311Z,4.00
2017-08-21T20:59:19.875Z,4.10
2017-08-21T21:01:47.433Z,3.90
2017-08-21T21:04:14.981Z,3.20
2017-08-21T21:06:42.502Z,3.43
2017-08-21T21:09:10.024Z,3.40
2017-08-21T21:11:37.564Z,3.30
2017-08-21T21:14:05.089Z,4.00
2017-08-21T21:16:32.680Z,3.50
2017-08-21T21:19:00.195Z,3.37
2017-08-21T21:21:27.710Z,3.30
2017-08-21T21:23:55.253Z,3.73
2017-08-21T21:26:22.799Z,3.50
2017-08-21T21:28:50.357Z,3.10
2017-08-21T21:31:17.889Z,3.13
2017-08-21T21:33:45.403Z,3.50
2017-08-21T21:36:13.007Z,3.50
2017-08-21T21:38:40.533Z,3.57
2017-08-21T21:41:08.084Z,3.60
2017-08-21T21:43:35.603Z,4.33
2017-08-21T21:46:03.133Z,3.80
2017-08-21T21:48:30.747Z,3.23
2017-08-21T21:50:58.290Z,3.40
2017-08-21T21:53:25.901Z,2.83
2017-08-21T21:55:53.416Z,2.83
2017-08-21T21:58:20.943Z,2.90
2017-08-21T22:00:48.497Z,3.30
2017-08-21T22:03:16.024Z,3.17
2017-08-21T22:05:43.577Z,4.80
2017-08-21T22:08:11.117Z,4.17
2017-08-21T22:10:38.660Z,4.07
2017-08-21T22:13:06.176Z,3.57
2017-08-21T22:15:33.709Z,3.57
2017-08-21T22:18:01.255Z,3.47
2017-08-21T22:20:28.870Z,3.70
2017-08-21T22:22:56.417Z,3.77
2017-08-21T22:25:23.957Z,3.50
2017-08-21T22:27:51.473Z,4.10
2017-08-21T22:30:18.988Z,3.80
2017-08-21T22:32:46.476Z,3.43
2017-08-21T22:35:13.979Z,3.50
2017-08-21T22:37:41.476Z,3.53
2017-08-21T22:40:09.001Z,3.10
2017-08-21T22:42:36.529Z,3.50
2017-08-21T22:45:04.053Z,3.77
2017-08-21T22:47:31.577Z,3.73
2017-08-21T22:49:59.092Z,3.30
2017-08-21T22:52:26.641Z,3.70
2017-08-21T22:54:54.153Z,4.37
2017-08-21T22:57:21.677Z,3.80
2017-08-21T22:59:49.211Z,3.63
2017-08-21T23:02:16.728Z,3.33
2017-08-21T23:04:44.270Z,3.10
2017-08-21T23:07:11.800Z,3.20
2017-08-21T23:09:39.343Z,3.70
2017-08-21T23:12:06.872Z,3.10
2017-08-21T23:14:34.396Z,3.30
2017-08-21T23:17:01.950Z,3.20
2017-08-21T23:19:29.472Z,3.00
2017-08-21T23:21:57.002Z,3.10
2017-08-21T23:24:24.508Z,3.27
2017-08-21T23:26:52.046Z,3.23
2017-08-21T23:29:19.557Z,3.70
2017-08-21T23:31:47.119Z,4.10
2017-08-21T23:34:14.711Z,3.70
2017-08-21T23:36:42.241Z,4.30
2017-08-21T23:39:09.793Z,4.07
2017-08-21T23:41:37.309Z,4.20
2017-08-21T23:44:04.846Z,5.43
2017-08-21T23:46:32.376Z,4.10
2017-08-21T23:48:59.889Z,4.57
2017-08-21T23:52:13.920Z,5.30
2017-08-21T23:54:41.449Z,4.40
2017-08-21T23:57:09.014Z,4.40
2017-08-21T23:59:36.521Z,4.30
